.
WxDataArchive / Data Records for 2010-09-16
2010-09-15 September 2010 2010-09-17

Data Records for Thursday, 16 September 2010

Time	Temp	Chill	HIndex	Humid	Dewpt	 Wind 	HiWind	WindDir	Rain 	Barom 
-----	----	-----	------	-----	-----	------	------	-------	-----	----- 
00:00	66.4	66.4	66.4	63	53.4	1	4	68	0.00	29.910 
00:05	66.4	66.4	66.4	63	53.4	1	6	68	0.00	29.910 
00:10	66.3	66.3	66.3	63	53.3	2	4	68	0.00	29.910 
00:15	66.3	66.3	66.3	64	53.7	1	3	90	0.00	29.893 
00:20	66.1	66.1	66.1	64	53.6	1	3	90	0.00	29.893 
00:25	66.0	66.0	66.0	64	53.5	1	3	90	0.00	29.893 
00:30	66.0	66.0	66.0	64	53.5	1	3	90	0.00	29.891 
00:35	66.0	66.0	66.0	64	53.5	1	4	90	0.00	29.891 
00:40	66.1	66.1	66.1	64	53.6	0	2	112	0.00	29.891 
00:45	66.0	66.0	66.0	65	53.9	0	2	112	0.00	29.888 
00:50	66.0	66.0	66.0	65	53.9	1	3	112	0.00	29.888 
00:55	66.0	66.0	66.0	65	53.9	1	3	112	0.00	29.888 
01:00	66.0	66.0	66.0	64	53.5	1	3	112	0.00	29.876 
01:05	66.0	66.0	66.0	65	53.9	1	5	112	0.00	29.876 
01:10	66.0	66.0	66.0	65	53.9	2	5	112	0.00	29.876 
01:15	66.0	66.0	66.0	65	53.9	1	4	90	0.00	29.857 
01:20	65.8	65.8	65.8	65	53.7	1	3	90	0.00	29.857 
01:25	65.8	65.8	65.8	66	54.1	2	5	68	0.00	29.857 
01:30	65.8	65.8	65.8	66	54.1	2	5	90	0.00	29.845 
01:35	65.6	65.6	65.6	66	53.9	2	5	90	0.00	29.845 
01:40	65.6	65.6	65.6	66	53.9	1	4	90	0.00	29.845 
01:45	65.6	65.6	65.6	66	53.9	1	3	90	0.00	29.843 
01:50	65.6	65.6	65.6	66	53.9	2	4	90	0.00	29.843 
01:55	65.6	65.6	65.6	66	53.9	2	4	90	0.00	29.843 
02:00	65.6	65.6	65.6	67	54.3	1	4	112	0.00	29.830 
02:05	65.5	65.5	65.5	66	53.8	1	2	112	0.00	29.830 
02:10	65.5	65.5	65.5	67	54.2	1	3	112	0.00	29.830 
02:15	65.5	65.5	65.5	67	54.2	1	4	90	0.00	29.823 
02:20	65.5	65.5	65.5	66	53.8	1	3	90	0.00	29.823 
02:25	65.5	65.5	65.5	66	53.8	0	3	90	0.00	29.823 
02:30	65.5	65.5	65.5	66	53.8	0	2	90	0.00	29.814 
02:35	65.6	65.6	65.6	65	53.5	1	3	90	0.00	29.814 
02:40	65.6	65.6	65.6	65	53.5	0	1	90	0.00	29.814 
02:45	65.6	65.6	65.6	65	53.5	0	1	90	0.00	29.810 
02:50	65.6	65.6	65.6	66	53.9	0	1	90	0.00	29.810 
02:55	65.5	65.5	65.5	66	53.8	1	2	90	0.00	29.810 
03:00	65.5	65.5	65.5	66	53.8	1	2	90	0.00	29.795 
03:05	65.5	65.5	65.5	66	53.8	0	0	---	0.00	29.795 
03:10	65.5	65.5	65.5	66	53.8	1	3	90	0.00	29.795 
03:15	65.5	65.5	65.5	66	53.8	0	2	90	0.00	29.789 
03:20	65.5	65.5	65.5	66	53.8	0	0	---	0.00	29.789 
03:25	65.5	65.5	65.5	67	54.2	0	0	---	0.00	29.789 
03:30	65.3	65.3	65.3	67	54.1	0	1	90	0.00	29.782 
03:35	65.2	65.2	65.2	68	54.4	0	1	90	0.00	29.782 
03:40	65.2	65.2	65.2	70	55.2	0	1	90	0.00	29.782 
03:45	65.0	65.0	65.0	71	55.4	0	1	90	0.00	29.778 
03:50	64.8	64.8	64.8	72	55.6	0	0	---	0.00	29.778 
03:55	64.7	64.7	64.7	72	55.5	0	0	---	0.00	29.778 
04:00	64.7	64.7	64.7	72	55.5	0	0	---	0.00	29.782 
04:05	64.7	64.7	64.7	73	55.8	0	0	---	0.00	29.782 
04:10	64.7	64.7	64.7	76	57.0	0	1	90	0.00	29.782 
04:15	64.3	64.3	64.3	78	57.3	0	0	---	0.00	29.765 
04:20	64.2	64.2	64.2	79	57.5	0	0	---	0.01	29.765 
04:25	64.0	64.0	64.0	82	58.4	0	0	---	0.00	29.765 
04:30	63.9	63.9	63.9	83	58.6	0	0	---	0.00	29.769 
04:35	63.7	63.7	63.7	85	59.1	0	0	---	0.00	29.769 
04:40	63.7	63.7	63.7	85	59.1	0	0	---	0.00	29.769 
04:45	63.5	63.5	63.5	86	59.2	0	0	---	0.00	29.768 
04:50	63.7	63.7	63.7	86	59.4	0	0	---	0.01	29.768 
04:55	64.0	64.0	64.0	88	60.4	0	1	90	0.00	29.768 
05:00	64.3	64.3	64.3	89	61.0	0	1	90	0.00	29.761 
05:05	64.7	64.7	64.7	89	61.4	0	1	90	0.00	29.761 
05:10	64.7	64.7	64.7	89	61.4	0	0	---	0.00	29.761 
05:15	64.8	64.8	64.8	90	61.8	0	0	---	0.00	29.750 
05:20	65.0	65.0	65.0	90	62.0	0	1	90	0.00	29.750 
05:25	65.0	65.0	65.0	90	62.0	0	0	---	0.00	29.750 
05:30	65.0	65.0	65.0	90	62.0	0	0	---	0.00	29.746 
05:35	65.0	65.0	65.0	90	62.0	0	0	---	0.00	29.746 
05:40	65.2	65.2	65.2	90	62.2	0	0	---	0.00	29.746 
05:45	65.2	65.2	65.2	90	62.2	0	0	---	0.00	29.744 
05:50	65.2	65.2	65.2	90	62.2	0	0	---	0.00	29.744 
05:55	65.2	65.2	65.2	90	62.2	0	0	---	0.00	29.744 
06:00	65.2	65.2	65.2	90	62.2	0	1	90	0.00	29.736 
06:05	65.3	65.3	65.3	90	62.3	0	0	---	0.00	29.736 
06:10	65.3	65.3	65.3	90	62.3	0	1	90	0.00	29.736 
06:15	65.5	65.5	65.5	90	62.5	0	2	90	0.00	29.734 
06:20	65.6	65.6	65.6	89	62.3	0	2	90	0.00	29.734 
06:25	65.6	65.6	65.6	89	62.3	0	2	248	0.00	29.734 
06:30	65.8	65.8	65.8	88	62.1	0	3	270	0.00	29.732 
06:35	66.0	66.0	66.0	88	62.3	0	2	270	0.00	29.732 
06:40	66.1	66.1	66.1	87	62.1	0	2	270	0.00	29.732 
06:45	66.3	66.3	66.3	86	62.0	0	2	270	0.00	29.726 
06:50	66.6	66.6	66.6	85	61.9	1	4	270	0.00	29.726 
06:55	66.8	66.8	66.8	85	62.1	1	3	248	0.00	29.726 
07:00	66.9	66.9	66.9	85	62.2	1	4	270	0.00	29.728 
07:05	67.1	67.1	67.1	84	62.1	0	2	270	0.00	29.728 
07:10	67.3	67.3	67.3	84	62.3	0	3	270	0.00	29.728 
07:15	67.4	67.4	67.4	84	62.4	1	4	270	0.00	29.731 
07:20	67.6	67.6	67.6	83	62.2	1	3	225	0.00	29.731 
07:25	67.8	67.8	67.8	83	62.4	1	4	225	0.00	29.731 
07:30	67.9	67.9	67.9	83	62.5	0	2	248	0.00	29.728 
07:35	68.1	68.1	68.1	82	62.4	1	4	248	0.00	29.728 
07:40	68.3	68.3	68.3	82	62.6	1	3	248	0.00	29.728 
07:45	68.4	68.4	68.4	82	62.7	1	5	248	0.00	29.727 
07:50	68.6	68.6	68.6	82	62.9	2	6	248	0.00	29.727 
07:55	68.8	68.8	68.8	81	62.7	1	3	270	0.00	29.727 
08:00	68.8	68.8	68.8	81	62.7	1	2	270	0.00	29.729 
08:05	68.9	68.9	68.9	81	62.8	1	3	270	0.00	29.729 
08:10	68.9	68.9	68.9	81	62.8	1	4	270	0.00	29.729 
08:15	68.9	68.9	68.9	81	62.8	1	3	248	0.00	29.732 
08:20	68.9	68.9	68.9	81	62.8	1	3	248	0.00	29.732 
08:25	68.9	68.9	68.9	81	62.8	1	3	248	0.00	29.732 
08:30	69.1	69.1	69.1	81	63.0	2	6	270	0.00	29.734 
08:35	69.1	69.1	69.1	81	63.0	1	5	270	0.00	29.734 
08:40	69.1	69.1	69.1	81	63.0	1	3	270	0.00	29.734 
08:45	69.1	69.1	69.1	82	63.4	2	4	270	0.00	29.735 
08:50	68.9	68.9	68.9	83	63.5	1	4	270	0.00	29.735 
08:55	68.9	68.9	68.9	83	63.5	3	5	270	0.00	29.735 
09:00	69.1	69.1	69.1	82	63.4	2	5	248	0.00	29.735 
09:05	69.1	69.1	69.1	82	63.4	3	9	248	0.00	29.735 
09:10	69.1	69.1	69.1	82	63.4	2	9	248	0.00	29.735 
09:15	69.3	69.3	69.3	82	63.6	2	6	248	0.00	29.734 
09:20	69.3	69.3	69.3	82	63.6	1	5	292	0.00	29.734 
09:25	69.4	69.4	69.4	82	63.7	1	5	248	0.00	29.734 
09:30	69.6	69.6	69.6	82	63.9	1	4	270	0.00	29.735 
09:35	69.8	69.8	69.8	81	63.7	1	3	270	0.00	29.735 
09:40	69.9	69.9	69.9	81	63.8	2	5	270	0.00	29.735 
09:45	69.9	69.9	69.9	80	63.4	3	5	270	0.00	29.736 
09:50	70.1	70.1	70.1	80	63.6	2	4	270	0.00	29.736 
09:55	70.3	70.3	70.3	80	63.8	2	5	270	0.00	29.736 
10:00	70.3	70.3	70.3	79	63.5	2	5	270	0.00	29.744 
10:05	70.3	70.3	70.3	79	63.5	2	5	270	0.00	29.744 
10:10	70.3	70.3	70.3	79	63.5	3	7	270	0.00	29.744 
10:15	70.6	70.6	70.6	78	63.4	3	7	248	0.00	29.746 
10:20	70.9	70.9	70.9	77	63.3	3	7	270	0.00	29.746 
10:25	70.9	70.9	70.9	77	63.3	3	7	270	0.00	29.746 
10:30	70.9	70.9	70.9	77	63.3	3	9	270	0.00	29.743 
10:35	71.1	71.1	71.1	77	63.5	3	7	270	0.00	29.743 
10:40	71.3	71.3	71.3	77	63.7	2	6	270	0.00	29.743 
10:45	71.8	71.8	71.8	76	63.8	2	6	270	0.00	29.741 
10:50	72.3	72.3	72.3	74	63.5	3	6	270	0.00	29.741 
10:55	72.7	72.7	72.7	74	63.9	3	6	270	0.00	29.741 
11:00	72.7	72.7	72.7	73	63.5	4	10	270	0.00	29.739 
11:05	73.0	73.0	73.0	73	63.8	3	6	248	0.00	29.739 
11:10	73.5	73.5	73.5	72	63.9	2	7	270	0.00	29.739 
11:15	74.2	74.2	74.2	70	63.8	2	6	270	0.00	29.734 
11:20	74.6	74.6	74.6	68	63.3	3	5	270	0.00	29.734 
11:25	74.7	74.7	74.7	67	63.0	3	6	270	0.00	29.734 
11:30	75.3	75.3	77.2	67	63.6	2	5	270	0.00	29.734 
11:35	75.6	75.6	77.5	66	63.4	2	4	248	0.00	29.734 
11:40	76.0	76.0	77.9	64	62.9	2	6	270	0.00	29.734 
11:45	76.0	76.0	77.9	64	62.9	2	5	248	0.00	29.723 
11:50	76.0	76.0	77.9	63	62.5	2	5	270	0.00	29.723 
11:55	76.0	76.0	77.9	64	62.9	2	5	248	0.00	29.723 
12:00	75.8	75.8	77.8	63	62.3	2	5	270	0.00	29.718 
12:05	76.3	76.3	78.2	63	62.8	1	4	248	0.00	29.718 
12:10	76.8	76.8	78.6	62	62.8	3	6	270	0.00	29.718 
12:15	77.4	77.4	79.2	62	63.3	2	6	270	0.00	29.717 
12:20	77.2	77.2	78.9	60	62.2	2	4	248	0.00	29.717 
12:25	77.6	77.6	79.3	60	62.6	2	6	248	0.00	29.717 
12:30	77.7	77.7	79.4	60	62.7	3	6	270	0.00	29.718 
12:35	77.4	77.4	79.1	60	62.4	2	6	248	0.00	29.718 
12:40	76.7	76.7	78.5	60	61.7	2	6	270	0.00	29.718 
12:45	76.3	76.3	78.2	62	62.3	1	4	248	0.00	29.716 
12:50	76.0	76.0	77.9	63	62.5	2	6	270	0.00	29.716 
12:55	75.6	75.6	77.6	64	62.5	2	5	270	0.00	29.716 
13:00	75.3	75.3	77.3	65	62.7	2	9	270	0.00	29.706 
13:05	75.1	75.1	77.1	66	62.9	2	5	270	0.00	29.706 
13:10	74.4	74.4	74.4	69	63.5	3	10	270	0.02	29.706 
13:15	72.3	72.3	72.3	77	64.7	3	10	270	0.01	29.716 
13:20	70.9	70.9	70.9	83	65.5	2	4	270	0.01	29.716 
13:25	70.6	70.6	70.6	86	66.2	2	5	270	0.00	29.716 
13:30	70.8	70.8	70.8	88	67.1	1	4	270	0.00	29.710 
13:35	70.6	70.6	70.6	87	66.5	2	6	270	0.00	29.710 
13:40	70.3	70.3	70.3	85	65.6	3	7	270	0.00	29.710 
13:45	70.4	70.4	70.4	84	65.3	2	6	270	0.00	29.690 
13:50	71.1	71.1	71.1	84	66.0	2	5	248	0.00	29.690 
13:55	72.0	72.0	72.0	81	65.8	2	6	270	0.00	29.690 
14:00	72.8	72.8	72.8	75	64.4	4	7	270	0.00	29.695 
14:05	73.5	73.5	73.5	72	63.9	4	8	270	0.00	29.695 
14:10	73.0	73.0	73.0	69	62.2	4	9	270	0.00	29.695 
14:15	72.3	72.3	72.3	73	63.1	4	11	248	0.00	29.704 
14:20	70.9	70.9	70.9	77	63.3	4	6	270	0.02	29.704 
14:25	69.3	69.3	69.3	82	63.6	4	11	270	0.06	29.704 
14:30	67.4	67.4	67.4	86	63.1	4	10	270	0.07	29.723 
14:35	66.6	66.6	66.6	88	62.9	3	7	270	0.02	29.723 
14:40	66.1	66.1	66.1	90	63.1	3	6	270	0.00	29.723 
14:45	66.3	66.3	66.3	90	63.3	3	6	270	0.00	29.714 
14:50	66.9	66.9	66.9	91	64.2	3	6	270	0.00	29.714 
14:55	67.6	67.6	67.6	91	64.9	2	4	292	0.00	29.714 
15:00	67.8	67.8	67.8	90	64.8	3	11	270	0.00	29.715 
15:05	67.3	67.3	67.3	88	63.6	6	12	270	0.00	29.715 
15:10	67.4	67.4	67.4	87	63.4	4	11	270	0.00	29.715 
15:15	67.3	67.3	67.3	86	63.0	4	7	270	0.00	29.727 
15:20	66.6	66.6	66.6	84	61.6	5	10	315	0.00	29.727 
15:25	66.4	66.4	66.4	85	61.7	3	10	315	0.00	29.727 
15:30	66.3	66.3	66.3	85	61.6	2	7	315	0.00	29.743 
15:35	66.0	66.0	66.0	84	61.0	5	9	315	0.00	29.743 
15:40	66.0	66.0	66.0	84	61.0	4	12	270	0.00	29.743 
15:45	65.8	65.8	65.8	83	60.5	3	7	315	0.00	29.757 
15:50	65.3	65.3	65.3	84	60.3	4	11	270	0.00	29.757 
15:55	65.0	65.0	65.0	81	59.0	4	7	270	0.00	29.757 
16:00	65.6	65.6	65.6	80	59.3	4	11	270	0.00	29.763 
16:05	65.8	65.8	65.8	78	58.7	3	9	270	0.00	29.763 
16:10	65.6	65.6	65.6	78	58.5	3	9	270	0.00	29.763 
16:15	65.6	65.6	65.6	78	58.5	4	12	315	0.00	29.785 
16:20	65.6	65.6	65.6	77	58.2	4	10	270	0.00	29.785 
16:25	66.0	66.0	66.0	74	57.5	4	7	292	0.00	29.785 
16:30	66.4	66.4	66.4	73	57.5	5	10	270	0.00	29.773 
16:35	66.8	66.8	66.8	71	57.1	5	11	270	0.00	29.773 
16:40	67.3	67.3	67.3	70	57.2	5	10	270	0.00	29.773 
16:45	67.4	67.4	67.4	69	56.9	4	10	270	0.00	29.782 
16:50	67.8	67.8	67.8	67	56.4	5	12	270	0.00	29.782 
16:55	67.8	67.8	67.8	67	56.4	6	12	270	0.00	29.782 
17:00	67.3	67.3	67.3	68	56.4	3	9	292	0.00	29.791 
17:05	66.6	66.6	66.6	69	56.1	4	11	270	0.00	29.791 
17:10	66.0	66.0	66.0	70	55.9	5	9	270	0.00	29.791 
17:15	65.6	65.6	65.6	71	55.9	5	9	270	0.00	29.804 
17:20	65.3	65.3	65.3	72	56.0	4	10	270	0.00	29.804 
17:25	64.5	64.5	64.5	74	56.0	5	12	270	0.00	29.804 
17:30	64.3	64.3	64.3	76	56.6	5	10	270	0.00	29.809 
17:35	64.0	64.0	64.0	77	56.6	4	10	270	0.00	29.809 
17:40	63.9	63.9	63.9	77	56.5	4	8	270	0.00	29.809 
17:45	63.5	63.5	63.5	78	56.5	4	8	270	0.00	29.818 
17:50	63.5	63.5	63.5	79	56.9	4	6	270	0.00	29.818 
17:55	63.2	63.2	63.2	79	56.6	4	9	270	0.00	29.818 
18:00	62.7	62.7	62.7	81	56.8	4	9	270	0.00	29.826 
18:05	62.6	62.6	62.6	81	56.7	4	10	270	0.00	29.826 
18:10	62.4	62.4	62.4	82	56.8	4	10	270	0.00	29.826 
18:15	62.3	62.3	62.3	83	57.1	5	10	270	0.00	29.827 
18:20	62.1	62.1	62.1	83	56.9	5	10	270	0.00	29.827 
18:25	62.1	62.1	62.1	84	57.2	3	10	270	0.00	29.827 
18:30	62.1	62.1	62.1	84	57.2	3	8	270	0.00	29.839 
18:35	62.0	62.0	62.0	84	57.1	3	6	270	0.00	29.839 
18:40	62.0	62.0	62.0	85	57.4	3	9	270	0.00	29.839 
18:45	62.0	62.0	62.0	85	57.4	3	10	270	0.00	29.849 
18:50	61.8	61.8	61.8	85	57.2	4	7	270	0.00	29.849 
18:55	61.8	61.8	61.8	86	57.6	3	6	270	0.00	29.849 
19:00	61.6	61.6	61.6	86	57.4	3	7	270	0.00	29.855 
19:05	61.6	61.6	61.6	86	57.4	3	6	270	0.00	29.855 
19:10	61.5	61.5	61.5	87	57.6	3	6	270	0.00	29.855 
19:15	61.5	61.5	61.5	87	57.6	3	6	270	0.00	29.866 
19:20	61.5	61.5	61.5	87	57.6	3	6	270	0.00	29.866 
19:25	61.5	61.5	61.5	88	57.9	4	10	270	0.00	29.866 
19:30	61.5	61.5	61.5	88	57.9	4	9	270	0.00	29.878 
19:35	61.5	61.5	61.5	88	57.9	4	6	270	0.00	29.878 
19:40	61.5	61.5	61.5	88	57.9	2	6	270	0.00	29.878 
19:45	61.5	61.5	61.5	88	57.9	4	9	270	0.00	29.876 
19:50	61.6	61.6	61.6	88	58.0	2	6	292	0.00	29.876 
19:55	61.6	61.6	61.6	88	58.0	2	6	292	0.00	29.876 
20:00	61.6	61.6	61.6	88	58.0	3	6	292	0.00	29.879 
20:05	61.6	61.6	61.6	88	58.0	3	6	270	0.00	29.879 
20:10	61.6	61.6	61.6	88	58.0	2	5	270	0.00	29.879 
20:15	61.6	61.6	61.6	88	58.0	3	7	270	0.00	29.893 
20:20	61.8	61.8	61.8	88	58.2	1	4	292	0.00	29.893 
20:25	61.6	61.6	61.6	89	58.3	2	6	270	0.00	29.893 
20:30	61.6	61.6	61.6	89	58.3	2	5	315	0.00	29.898 
20:35	61.6	61.6	61.6	90	58.6	2	5	270	0.00	29.898 
20:40	61.5	61.5	61.5	90	58.5	2	5	270	0.00	29.898 
20:45	61.5	61.5	61.5	91	58.8	2	4	292	0.00	29.911 
20:50	61.3	61.3	61.3	91	58.6	1	4	292	0.00	29.911 
20:55	61.3	61.3	61.3	92	59.0	0	3	270	0.00	29.911 
21:00	61.5	61.5	61.5	92	59.2	0	1	270	0.00	29.920 
21:05	61.5	61.5	61.5	92	59.2	0	2	270	0.00	29.920 
21:10	61.5	61.5	61.5	92	59.2	0	1	270	0.00	29.920 
21:15	61.5	61.5	61.5	92	59.2	0	2	270	0.00	29.933 
21:20	61.5	61.5	61.5	92	59.2	0	1	270	0.00	29.933 
21:25	61.3	61.3	61.3	93	59.3	0	4	270	0.00	29.933 
21:30	61.2	61.2	61.2	93	59.2	0	2	270	0.00	29.946 
21:35	61.0	61.0	61.0	93	59.0	0	2	292	0.00	29.946 
21:40	61.0	61.0	61.0	93	59.0	0	1	292	0.01	29.946 
21:45	60.9	60.9	60.9	93	58.9	0	1	292	0.00	29.947 
21:50	60.9	60.9	60.9	93	58.9	0	1	292	0.00	29.947 
21:55	60.9	60.9	60.9	93	58.9	0	1	292	0.00	29.947 
22:00	60.7	60.7	60.7	93	58.7	0	2	292	0.00	29.948 
22:05	60.5	60.5	60.5	94	58.8	0	1	292	0.00	29.948 
22:10	60.4	60.4	60.4	94	58.7	0	2	292	0.00	29.948 
22:15	59.9	59.9	59.9	93	57.9	1	5	292	0.00	29.951 
22:20	59.5	59.5	59.5	93	57.5	1	4	315	0.00	29.951 
22:25	59.3	59.3	59.3	93	57.3	0	3	338	0.00	29.951 
22:30	59.3	59.3	59.3	93	57.3	0	1	338	0.00	29.960 
22:35	59.2	59.2	59.2	93	57.2	0	2	338	0.00	29.960 
22:40	59.2	59.2	59.2	93	57.2	0	0	---	0.00	29.960 
22:45	59.2	59.2	59.2	93	57.2	0	0	---	0.00	29.964 
22:50	59.2	59.2	59.2	93	57.2	0	1	338	0.00	29.964 
22:55	59.0	59.0	59.0	93	57.0	0	2	338	0.00	29.964 
23:00	59.0	59.0	59.0	93	57.0	0	2	292	0.00	29.970 
23:05	58.9	58.9	58.9	92	56.6	0	3	292	0.00	29.970 
23:10	58.9	58.9	58.9	92	56.6	0	1	292	0.00	29.970 
23:15	58.7	58.7	58.7	92	56.4	0	1	292	0.00	29.977 
23:20	58.6	58.6	58.6	91	56.0	0	3	270	0.00	29.977 
23:25	58.6	58.6	58.6	91	56.0	0	1	270	0.00	29.977 
23:30	58.6	58.6	58.6	90	55.7	0	2	270	0.00	29.980 
23:35	58.4	58.4	58.4	90	55.5	0	2	270	0.00	29.980 
23:40	58.4	58.4	58.4	90	55.5	0	1	270	0.00	29.980 
23:45	58.4	58.4	58.4	90	55.5	0	0	---	0.00	29.987 
23:50	58.4	58.4	58.4	89	55.2	0	2	270	0.00	29.987 
23:55	58.3	58.3	58.3	89	55.1	0	1	270	0.00	29.987 

CoCoRaHS
IN-AL-39
A2 Web Hosting
Creative Commons License
GoDaddy
search engine by freefind advanced

loaded 2018-11-17 23:28:44 • last modified 2010-11-18 10:43:29
Privacy PolicyDisclaimer
• wx.awcolley.com is powered by PmWiki v.2002016 •
• all content (unless otherwise noted) © 2018 A W Colley